Time;durP1;ratioP1;P1;durP2;ratioP2;P2;SDS_P1;SDS_P2;PMS_P1;PMS_P2;Temp;Humidity;BMP_temperature;BMP_pressure;BME280_temperature;BME280_humidity;BME280_pressure;Samples;Min_cycle;Max_cycle;Signal;HPM_P1;HPM_P2
2023/08/26 00:00:35;;;;;;;4.88;4.47;;;;;;;;;;5038754;28;20910;-83
2023/08/26 00:03:01;;;;;;;5.18;4.40;;;;;;;;;;5018845;28;20398;-83
2023/08/26 00:05:27;;;;;;;4.85;4.35;;;;;;;;;;5037436;28;20378;-83
2023/08/26 00:07:53;;;;;;;4.60;4.20;;;;;;;;;;5035592;28;20409;-83
2023/08/26 00:10:19;;;;;;;4.97;4.40;;;;;;;;;;5038355;28;20430;-83
2023/08/26 00:12:45;;;;;;;4.28;3.97;;;;;;;;;;5037510;28;20391;-83
2023/08/26 00:15:11;;;;;;;4.50;4.10;;;;;;;;;;5038088;28;20516;-83
2023/08/26 00:17:37;;;;;;;4.37;3.97;;;;;;;;;;5038094;28;20823;-83
2023/08/26 00:20:08;;;;;;;5.00;4.47;;;;;;;;;;5038814;28;20453;-83
2023/08/26 00:22:34;;;;;;;6.35;5.00;;;;;;;;;;5037886;28;20391;-83
2023/08/26 00:25:01;;;;;;;5.32;4.82;;;;;;;;;;5038765;28;20382;-83
2023/08/26 00:27:27;;;;;;;5.38;4.90;;;;;;;;;;5038398;28;20387;-83
2023/08/26 00:29:53;;;;;;;5.53;4.70;;;;;;;;;;5020855;28;20383;-83
2023/08/26 00:32:19;;;;;;;5.50;5.10;;;;;;;;;;5037257;28;20387;-84
2023/08/26 00:34:45;;;;;;;5.93;5.30;;;;;;;;;;5038619;28;20509;-84
2023/08/26 00:37:12;;;;;;;5.72;4.82;;;;;;;;;;5038507;28;20379;-82
2023/08/26 00:39:38;;;;;;;5.68;5.18;;;;;;;;;;5038669;28;20383;-82
2023/08/26 00:42:04;;;;;;;5.78;5.00;;;;;;;;;;5037472;28;20399;-82
2023/08/26 00:44:30;;;;;;;5.70;5.10;;;;;;;;;;5034602;28;20403;-82
2023/08/26 00:46:57;;;;;;;5.15;4.72;;;;;;;;;;5035291;28;20452;-82
2023/08/26 00:49:23;;;;;;;5.43;4.93;;;;;;;;;;5037630;28;20467;-82
2023/08/26 00:51:49;;;;;;;5.05;4.60;;;;;;;;;;5037407;28;20482;-82
2023/08/26 00:54:15;;;;;;;5.15;4.75;;;;;;;;;;5019310;28;20406;-82
2023/08/26 00:56:42;;;;;;;5.03;4.50;;;;;;;;;;5018040;28;20876;-82
2023/08/26 00:59:08;;;;;;;4.90;4.50;;;;;;;;;;5019041;28;20795;-82
2023/08/26 01:01:34;;;;;;;4.57;4.28;;;;;;;;;;5036921;28;20387;-82
2023/08/26 01:04:00;;;;;;;4.97;4.43;;;;;;;;;;5037689;28;20866;-82
2023/08/26 01:06:26;;;;;;;4.60;4.20;;;;;;;;;;5037524;28;20407;-82
2023/08/26 01:08:52;;;;;;;4.93;4.43;;;;;;;;;;5017812;28;20403;-82
2023/08/26 01:11:29;;;;;;;4.72;4.32;;;;;;;;;;5037321;28;20433;-82
2023/08/26 01:14:12;;;;;;;4.63;4.18;;;;;;;;;;5037366;28;20395;-83
2023/08/26 01:16:39;;;;;;;4.03;3.72;;;;;;;;;;5036375;28;20406;-82
2023/08/26 01:19:08;;;;;;;4.82;4.43;;;;;;;;;;5036302;28;20462;-83
2023/08/26 01:21:40;;;;;;;4.72;4.32;;;;;;;;;;5034724;28;20462;-82
2023/08/26 01:24:07;;;;;;;5.00;4.60;;;;;;;;;;5036588;28;20371;-83
2023/08/26 01:26:33;;;;;;;5.35;4.32;;;;;;;;;;5038132;28;20411;-82
2023/08/26 01:28:59;;;;;;;6.33;4.73;;;;;;;;;;5036373;28;20371;-82
2023/08/26 01:31:26;;;;;;;5.15;4.00;;;;;;;;;;5035983;28;20503;-82
2023/08/26 01:34:04;;;;;;;5.20;4.65;;;;;;;;;;5040623;28;20391;-83
2023/08/26 01:36:31;;;;;;;4.40;4.00;;;;;;;;;;5036085;28;20448;-82
2023/08/26 01:38:58;;;;;;;5.13;4.40;;;;;;;;;;5036002;28;20414;-82
2023/08/26 01:41:24;;;;;;;4.93;4.25;;;;;;;;;;5037379;28;20438;-83
2023/08/26 01:43:51;;;;;;;4.63;4.22;;;;;;;;;;5035303;28;20387;-83
2023/08/26 01:46:17;;;;;;;4.85;4.45;;;;;;;;;;5031175;28;20863;-83
2023/08/26 01:48:43;;;;;;;4.95;4.45;;;;;;;;;;5037218;28;20399;-83
2023/08/26 01:51:10;;;;;;;5.63;4.57;;;;;;;;;;5014504;28;20757;-83
2023/08/26 01:53:36;;;;;;;6.35;4.50;;;;;;;;;;5032577;28;20386;-83
2023/08/26 01:56:02;;;;;;;5.05;4.55;;;;;;;;;;5019035;28;20415;-83
2023/08/26 01:58:28;;;;;;;6.10;5.47;;;;;;;;;;5034998;28;20399;-83
2023/08/26 02:00:54;;;;;;;6.40;5.90;;;;;;;;;;5036850;28;20661;-83
2023/08/26 02:03:20;;;;;;;5.57;5.03;;;;;;;;;;5016877;28;20396;-82
2023/08/26 02:05:46;;;;;;;5.32;4.82;;;;;;;;;;5036168;28;20410;-83
2023/08/26 02:08:12;;;;;;;5.70;5.15;;;;;;;;;;5018315;28;20433;-82
2023/08/26 02:10:38;;;;;;;7.18;5.28;;;;;;;;;;5035247;28;20392;-84
2023/08/26 02:13:04;;;;;;;5.35;4.82;;;;;;;;;;5036851;28;20733;-82
2023/08/26 02:15:33;;;;;;;5.53;5.03;;;;;;;;;;5016889;28;20896;-83
2023/08/26 02:17:59;;;;;;;5.40;5.00;;;;;;;;;;5032221;28;20394;-82
2023/08/26 02:20:25;;;;;;;6.22;5.20;;;;;;;;;;5034098;28;20387;-83
2023/08/26 02:22:51;;;;;;;5.47;4.97;;;;;;;;;;5016195;28;20418;-83
2023/08/26 02:25:17;;;;;;;5.10;4.57;;;;;;;;;;5011431;28;20390;-83
2023/08/26 02:27:43;;;;;;;6.65;5.50;;;;;;;;;;5017720;28;20816;-83
2023/08/26 02:30:10;;;;;;;5.85;5.35;;;;;;;;;;5035422;28;20379;-83
2023/08/26 02:32:36;;;;;;;6.10;5.53;;;;;;;;;;5034972;28;20397;-83
2023/08/26 02:35:02;;;;;;;5.53;4.97;;;;;;;;;;5017566;28;20474;-84
2023/08/26 02:37:28;;;;;;;5.20;4.70;;;;;;;;;;5017786;28;20425;-84
2023/08/26 02:39:54;;;;;;;8.20;5.60;;;;;;;;;;5035590;28;20391;-83
2023/08/26 02:42:21;;;;;;;6.30;5.80;;;;;;;;;;5017661;28;20446;-84
2023/08/26 02:44:47;;;;;;;8.20;7.40;;;;;;;;;;5035067;28;20387;-82
2023/08/26 02:47:13;;;;;;;7.57;6.88;;;;;;;;;;5035029;28;20387;-83
2023/08/26 02:49:39;;;;;;;5.82;5.32;;;;;;;;;;5031985;28;20375;-83
2023/08/26 02:52:05;;;;;;;5.40;4.90;;;;;;;;;;5035281;28;20379;-83
2023/08/26 02:54:31;;;;;;;5.63;4.77;;;;;;;;;;5035182;28;20448;-84
2023/08/26 02:57:00;;;;;;;5.25;4.75;;;;;;;;;;5032616;28;20400;-81
2023/08/26 02:59:28;;;;;;;4.95;4.47;;;;;;;;;;5035260;28;20379;-82
2023/08/26 03:02:03;;;;;;;5.07;4.20;;;;;;;;;;5035699;28;20380;-83
2023/08/26 03:04:30;;;;;;;4.75;4.35;;;;;;;;;;5035946;28;20390;-84
2023/08/26 03:06:56;;;;;;;4.73;4.20;;;;;;;;;;5036115;28;20387;-83
2023/08/26 03:09:22;;;;;;;4.82;4.43;;;;;;;;;;5035765;28;20378;-84
2023/08/26 03:11:48;;;;;;;5.18;4.70;;;;;;;;;;5018086;28;20895;-84
2023/08/26 03:14:15;;;;;;;5.30;4.90;;;;;;;;;;5017367;28;20387;-83
2023/08/26 03:16:41;;;;;;;4.68;4.38;;;;;;;;;;5035342;28;20905;-84
2023/08/26 03:19:07;;;;;;;5.43;4.90;;;;;;;;;;5033766;28;20737;-83
2023/08/26 03:21:33;;;;;;;5.40;4.90;;;;;;;;;;5035141;28;20395;-83
2023/08/26 03:23:59;;;;;;;5.30;4.60;;;;;;;;;;5037355;28;20421;-83
2023/08/26 03:26:25;;;;;;;6.68;4.60;;;;;;;;;;5033600;28;20728;-83
2023/08/26 03:28:52;;;;;;;4.47;4.07;;;;;;;;;;5007438;28;20443;-83
2023/08/26 03:31:18;;;;;;;5.57;4.03;;;;;;;;;;5019000;28;20726;-83
2023/08/26 03:33:44;;;;;;;6.13;4.18;;;;;;;;;;5036830;28;20390;-83
2023/08/26 03:36:10;;;;;;;4.72;4.22;;;;;;;;;;5039022;28;20469;-83
2023/08/26 03:38:36;;;;;;;4.30;3.90;;;;;;;;;;5038285;28;20386;-84
2023/08/26 03:41:03;;;;;;;4.43;4.03;;;;;;;;;;5037117;28;20405;-83
2023/08/26 03:43:30;;;;;;;5.38;4.55;;;;;;;;;;5037884;28;20459;-83
2023/08/26 03:45:59;;;;;;;4.28;3.80;;;;;;;;;;5038693;28;20473;-83
2023/08/26 03:48:25;;;;;;;4.75;4.32;;;;;;;;;;5021171;28;20391;-82
2023/08/26 03:50:56;;;;;;;4.60;4.20;;;;;;;;;;5038615;28;20870;-83
2023/08/26 03:53:22;;;;;;;4.28;3.80;;;;;;;;;;5036430;28;20379;-84
2023/08/26 03:55:48;;;;;;;5.93;4.60;;;;;;;;;;5037824;28;20446;-84
2023/08/26 03:58:15;;;;;;;4.85;4.43;;;;;;;;;;5037590;28;20394;-82
2023/08/26 04:00:41;;;;;;;4.95;4.45;;;;;;;;;;5038547;28;20379;-82
2023/08/26 04:03:07;;;;;;;4.57;3.92;;;;;;;;;;5038307;28;20394;-82
2023/08/26 04:05:33;;;;;;;4.97;4.47;;;;;;;;;;5031445;28;20385;-82
2023/08/26 04:08:02;;;;;;;4.40;3.97;;;;;;;;;;5036557;28;20391;-82
2023/08/26 04:10:29;;;;;;;4.57;3.83;;;;;;;;;;5036884;28;20383;-82
2023/08/26 04:13:00;;;;;;;4.53;4.13;;;;;;;;;;5038734;28;20917;-82
2023/08/26 04:15:26;;;;;;;4.93;4.40;;;;;;;;;;5038143;28;20426;-82
2023/08/26 04:17:52;;;;;;;4.63;4.00;;;;;;;;;;5038795;28;20393;-82
2023/08/26 04:20:18;;;;;;;4.85;4.45;;;;;;;;;;5036420;28;20466;-82
2023/08/26 04:22:44;;;;;;;4.35;3.92;;;;;;;;;;5038239;28;20383;-82
2023/08/26 04:25:10;;;;;;;4.43;4.03;;;;;;;;;;5035430;28;20390;-82
2023/08/26 04:27:37;;;;;;;4.28;3.97;;;;;;;;;;5037074;28;20405;-82
2023/08/26 04:30:04;;;;;;;4.47;4.10;;;;;;;;;;5036094;28;20430;-82
2023/08/26 04:32:30;;;;;;;4.65;4.00;;;;;;;;;;5034223;28;20942;-82
2023/08/26 04:34:56;;;;;;;5.60;4.10;;;;;;;;;;5036323;28;20415;-82
2023/08/26 04:37:22;;;;;;;5.03;4.40;;;;;;;;;;5037580;28;20419;-82
2023/08/26 04:39:48;;;;;;;4.30;3.92;;;;;;;;;;5037728;28;20852;-82
2023/08/26 04:42:14;;;;;;;4.13;3.83;;;;;;;;;;5017830;28;20398;-82
2023/08/26 04:44:40;;;;;;;4.57;3.72;;;;;;;;;;5037809;28;20383;-82
2023/08/26 04:47:07;;;;;;;5.65;4.03;;;;;;;;;;5036555;28;20418;-82
2023/08/26 04:49:33;;;;;;;5.20;4.35;;;;;;;;;;5037455;28;20386;-82
2023/08/26 04:51:59;;;;;;;5.03;3.70;;;;;;;;;;5037218;28;20391;-83
2023/08/26 04:54:26;;;;;;;6.13;3.83;;;;;;;;;;5037969;28;20427;-82
2023/08/26 04:56:52;;;;;;;5.75;3.90;;;;;;;;;;5035748;28;20391;-83
2023/08/26 04:59:18;;;;;;;6.38;4.60;;;;;;;;;;5019175;28;20470;-83
2023/08/26 05:01:44;;;;;;;4.17;3.70;;;;;;;;;;5038826;28;20561;-83
2023/08/26 05:04:10;;;;;;;4.57;3.97;;;;;;;;;;5038352;28;20426;-83
2023/08/26 05:06:36;;;;;;;4.13;3.67;;;;;;;;;;5037803;28;20390;-83
2023/08/26 05:09:04;;;;;;;5.20;4.03;;;;;;;;;;5037542;28;20858;-83
2023/08/26 05:11:30;;;;;;;4.85;3.78;;;;;;;;;;5036885;28;21036;-82
2023/08/26 05:13:56;;;;;;;5.38;3.72;;;;;;;;;;5036775;28;20379;-82
2023/08/26 05:16:22;;;;;;;5.17;4.63;;;;;;;;;;5037970;28;20773;-83
2023/08/26 05:18:48;;;;;;;4.63;4.10;;;;;;;;;;5036891;28;20375;-83
2023/08/26 05:21:14;;;;;;;6.63;4.97;;;;;;;;;;5037521;28;20406;-83
2023/08/26 05:23:40;;;;;;;6.18;4.95;;;;;;;;;;5039132;28;20463;-82
2023/08/26 05:26:06;;;;;;;4.80;4.35;;;;;;;;;;5017331;28;20483;-82
2023/08/26 05:28:32;;;;;;;5.38;4.78;;;;;;;;;;5035673;28;20387;-82
2023/08/26 05:30:58;;;;;;;5.93;4.43;;;;;;;;;;5035700;28;20382;-83
2023/08/26 05:33:24;;;;;;;4.90;4.50;;;;;;;;;;5051327;28;20403;-83
2023/08/26 05:35:50;;;;;;;4.68;4.15;;;;;;;;;;5036701;28;20445;-83
2023/08/26 05:38:16;;;;;;;6.47;4.85;;;;;;;;;;5050985;28;20407;-83
2023/08/26 05:40:42;;;;;;;4.80;4.30;;;;;;;;;;5022605;28;20390;-82
2023/08/26 05:43:08;;;;;;;6.43;5.05;;;;;;;;;;5034318;28;20439;-82
2023/08/26 05:45:35;;;;;;;7.90;5.50;;;;;;;;;;5033668;28;20390;-82
2023/08/26 05:48:01;;;;;;;6.60;4.70;;;;;;;;;;5035019;28;20803;-83
2023/08/26 05:50:27;;;;;;;6.07;4.45;;;;;;;;;;5035366;28;20478;-83
2023/08/26 05:52:53;;;;;;;5.38;4.88;;;;;;;;;;5035799;28;20391;-83
2023/08/26 05:55:19;;;;;;;6.22;5.05;;;;;;;;;;5046334;28;21019;-82
2023/08/26 05:57:45;;;;;;;6.32;4.20;;;;;;;;;;5033266;28;20387;-83
2023/08/26 06:00:11;;;;;;;6.60;4.80;;;;;;;;;;5040068;28;20402;-83
2023/08/26 06:02:37;;;;;;;5.82;4.43;;;;;;;;;;5034874;28;20784;-83
2023/08/26 06:05:03;;;;;;;4.90;4.40;;;;;;;;;;5036494;28;20386;-83
2023/08/26 06:07:29;;;;;;;5.18;4.18;;;;;;;;;;5050072;28;20388;-83
2023/08/26 06:09:55;;;;;;;4.82;4.25;;;;;;;;;;5004772;28;20733;-83
2023/08/26 06:12:21;;;;;;;4.63;4.23;;;;;;;;;;5036673;28;20390;-84
2023/08/26 06:14:47;;;;;;;4.50;4.00;;;;;;;;;;5036627;28;20726;-83
2023/08/26 06:17:13;;;;;;;6.28;4.00;;;;;;;;;;5036497;28;20410;-83
2023/08/26 06:19:39;;;;;;;4.45;3.70;;;;;;;;;;5051239;28;20403;-83
2023/08/26 06:22:05;;;;;;;5.78;4.40;;;;;;;;;;5036100;28;20779;-83
2023/08/26 06:24:31;;;;;;;4.45;3.80;;;;;;;;;;5039604;28;20884;-83
2023/08/26 06:26:57;;;;;;;4.72;3.85;;;;;;;;;;5051149;28;20430;-84
2023/08/26 06:29:25;;;;;;;4.63;3.65;;;;;;;;;;5037565;28;20387;-83
2023/08/26 06:31:51;;;;;;;5.30;4.23;;;;;;;;;;5036848;28;20391;-84
2023/08/26 06:34:17;;;;;;;6.00;4.70;;;;;;;;;;5051811;28;20399;-84
2023/08/26 06:36:45;;;;;;;6.75;4.82;;;;;;;;;;5049358;28;20410;-84
2023/08/26 06:39:11;;;;;;;6.63;5.22;;;;;;;;;;5025017;28;20394;-83
2023/08/26 06:41:37;;;;;;;6.00;5.32;;;;;;;;;;5035311;28;20840;-84
2023/08/26 06:44:04;;;;;;;4.63;4.22;;;;;;;;;;5047315;28;20395;-83
2023/08/26 06:46:30;;;;;;;4.70;4.10;;;;;;;;;;5036005;28;20393;-84
2023/08/26 06:48:56;;;;;;;4.70;4.18;;;;;;;;;;5035875;28;20415;-84
2023/08/26 06:51:22;;;;;;;6.15;4.47;;;;;;;;;;5034095;28;20391;-84
2023/08/26 06:53:47;;;;;;;5.50;4.50;;;;;;;;;;5035679;28;20655;-84
2023/08/26 06:56:14;;;;;;;4.53;4.13;;;;;;;;;;5051149;28;20458;-84
2023/08/26 06:58:40;;;;;;;5.82;4.30;;;;;;;;;;5035809;28;20390;-84
2023/08/26 07:01:05;;;;;;;5.57;4.53;;;;;;;;;;5034924;28;20399;-84
2023/08/26 07:03:31;;;;;;;4.25;3.85;;;;;;;;;;5037038;28;20399;-84
2023/08/26 07:05:57;;;;;;;7.18;4.63;;;;;;;;;;5020424;28;20443;-84
2023/08/26 07:08:24;;;;;;;5.65;4.60;;;;;;;;;;5034321;28;20767;-83
2023/08/26 07:10:50;;;;;;;5.88;4.50;;;;;;;;;;5034027;28;20872;-83
2023/08/26 07:13:16;;;;;;;6.28;4.35;;;;;;;;;;5035659;28;20455;-83
2023/08/26 07:15:42;;;;;;;5.32;4.03;;;;;;;;;;5049751;28;20936;-83
2023/08/26 07:18:08;;;;;;;6.23;4.33;;;;;;;;;;5034810;28;20382;-83
2023/08/26 07:20:34;;;;;;;6.78;3.75;;;;;;;;;;5034919;28;20401;-83
2023/08/26 07:23:00;;;;;;;4.97;3.88;;;;;;;;;;5034894;28;20383;-83
2023/08/26 07:25:26;;;;;;;4.63;4.20;;;;;;;;;;5034848;28;20383;-83
2023/08/26 07:27:52;;;;;;;4.40;3.67;;;;;;;;;;5034734;28;20454;-83
2023/08/26 07:30:18;;;;;;;6.27;3.97;;;;;;;;;;5024296;28;20441;-83
2023/08/26 07:32:44;;;;;;;5.30;4.18;;;;;;;;;;5036202;28;20391;-83
2023/08/26 07:35:10;;;;;;;5.47;3.85;;;;;;;;;;5034638;28;20414;-83
2023/08/26 07:37:37;;;;;;;4.72;3.80;;;;;;;;;;5035121;28;20814;-83
2023/08/26 07:40:05;;;;;;;4.75;3.72;;;;;;;;;;5034515;28;20379;-83
2023/08/26 07:42:33;;;;;;;5.00;3.57;;;;;;;;;;5033940;28;20435;-83
2023/08/26 07:44:59;;;;;;;5.93;3.92;;;;;;;;;;5035058;28;20441;-83
2023/08/26 07:47:25;;;;;;;4.03;3.50;;;;;;;;;;5033805;28;20395;-83
2023/08/26 07:49:51;;;;;;;4.97;3.75;;;;;;;;;;5030551;28;20412;-83
2023/08/26 07:52:16;;;;;;;4.68;3.60;;;;;;;;;;5016053;28;20853;-83
2023/08/26 07:54:43;;;;;;;5.20;3.58;;;;;;;;;;5015104;28;20410;-82
2023/08/26 07:57:08;;;;;;;8.13;4.00;;;;;;;;;;5035311;28;20395;-82
2023/08/26 07:59:34;;;;;;;4.13;3.30;;;;;;;;;;5013644;28;20479;-82
2023/08/26 08:02:00;;;;;;;5.07;3.45;;;;;;;;;;5023898;28;20391;-83
2023/08/26 08:04:27;;;;;;;4.53;3.47;;;;;;;;;;5033096;28;20387;-83
2023/08/26 08:06:53;;;;;;;5.18;3.40;;;;;;;;;;5030976;28;20868;-84
2023/08/26 08:09:18;;;;;;;4.97;3.58;;;;;;;;;;5027130;28;20388;-84
2023/08/26 08:11:44;;;;;;;4.18;3.67;;;;;;;;;;5035586;28;20407;-83
2023/08/26 08:14:10;;;;;;;4.55;3.15;;;;;;;;;;5036124;28;20391;-82
2023/08/26 08:16:36;;;;;;;4.50;3.40;;;;;;;;;;5038291;28;20517;-83
2023/08/26 08:19:03;;;;;;;5.90;3.50;;;;;;;;;;5037727;28;20383;-82
2023/08/26 08:21:29;;;;;;;5.20;3.50;;;;;;;;;;5034051;28;20892;-82
2023/08/26 08:23:55;;;;;;;3.58;3.28;;;;;;;;;;5040861;28;20407;-81
2023/08/26 08:26:21;;;;;;;5.70;3.40;;;;;;;;;;5039970;28;20399;-81
2023/08/26 08:28:47;;;;;;;4.35;3.17;;;;;;;;;;5038996;28;20414;-81
2023/08/26 08:31:13;;;;;;;5.32;3.20;;;;;;;;;;5042362;28;20387;-81
2023/08/26 08:33:39;;;;;;;6.68;3.58;;;;;;;;;;5040677;28;20383;-81
2023/08/26 08:36:05;;;;;;;3.55;3.05;;;;;;;;;;5040111;28;20451;-81
2023/08/26 08:38:31;;;;;;;4.53;3.60;;;;;;;;;;5038987;28;20391;-80
2023/08/26 08:40:58;;;;;;;5.67;3.40;;;;;;;;;;5034562;28;20430;-81
2023/08/26 08:43:24;;;;;;;4.22;3.78;;;;;;;;;;5038787;28;20473;-80
2023/08/26 08:45:50;;;;;;;4.35;3.30;;;;;;;;;;5033158;28;20462;-80
2023/08/26 08:48:18;;;;;;;4.03;3.13;;;;;;;;;;5035514;28;20490;-80
2023/08/26 08:50:45;;;;;;;4.00;3.20;;;;;;;;;;5044317;23;20391;-80
2023/08/26 08:53:11;;;;;;;5.63;4.32;;;;;;;;;;5095171;28;20724;-80
2023/08/26 08:55:38;;;;;;;5.28;4.20;;;;;;;;;;5088211;28;20867;-81
2023/08/26 08:58:04;;;;;;;5.57;4.00;;;;;;;;;;5093551;28;20417;-80
2023/08/26 09:00:31;;;;;;;6.32;4.18;;;;;;;;;;5076028;28;20869;-80
2023/08/26 09:02:58;;;;;;;4.80;4.03;;;;;;;;;;5063707;28;20407;-81
2023/08/26 09:05:24;;;;;;;5.30;4.18;;;;;;;;;;5077031;28;20418;-81
2023/08/26 09:07:51;;;;;;;6.40;4.18;;;;;;;;;;5079223;28;20758;-81
2023/08/26 09:10:18;;;;;;;6.72;4.15;;;;;;;;;;5078875;28;20395;-80
2023/08/26 09:12:44;;;;;;;5.43;4.63;;;;;;;;;;5079938;28;20401;-80
2023/08/26 09:15:10;;;;;;;6.85;4.07;;;;;;;;;;5060393;28;20412;-80
2023/08/26 09:17:36;;;;;;;5.37;4.13;;;;;;;;;;5078028;28;20400;-81
2023/08/26 09:20:05;;;;;;;5.18;4.50;;;;;;;;;;5079780;28;20380;-80
2023/08/26 09:22:31;;;;;;;6.32;4.30;;;;;;;;;;5080489;28;20379;-80
2023/08/26 09:25:01;;;;;;;6.40;4.57;;;;;;;;;;5078847;28;20395;-80
2023/08/26 09:27:28;;;;;;;7.43;4.57;;;;;;;;;;5075200;28;20395;-81
2023/08/26 09:29:55;;;;;;;7.75;4.57;;;;;;;;;;5080011;28;20852;-80
2023/08/26 09:32:33;;;;;;;5.28;3.95;;;;;;;;;;5080244;28;20398;-80
2023/08/26 09:35:09;;;;;;;6.95;4.57;;;;;;;;;;5077801;28;20404;-81
2023/08/26 09:37:35;;;;;;;6.93;4.28;;;;;;;;;;5079847;28;20384;-80
2023/08/26 09:40:01;;;;;;;4.75;4.22;;;;;;;;;;5075589;28;20383;-81
2023/08/26 09:42:27;;;;;;;7.95;4.35;;;;;;;;;;5079642;28;20408;-80
2023/08/26 09:44:56;;;;;;;6.50;4.27;;;;;;;;;;5057814;28;20423;-80
2023/08/26 09:47:22;;;;;;;6.70;4.05;;;;;;;;;;5062781;28;20813;-80
2023/08/26 09:49:49;;;;;;;5.63;4.13;;;;;;;;;;5076034;28;20467;-80
2023/08/26 09:52:15;;;;;;;19.95;5.57;;;;;;;;;;5075322;28;20380;-79
2023/08/26 09:54:42;;;;;;;5.43;3.80;;;;;;;;;;5073647;28;20889;-79
2023/08/26 09:57:08;;;;;;;6.25;3.90;;;;;;;;;;5074483;28;20533;-80
2023/08/26 09:59:34;;;;;;;5.10;4.00;;;;;;;;;;5074184;28;20387;-80
2023/08/26 10:02:03;;;;;;;5.05;3.90;;;;;;;;;;5076824;28;20388;-80
2023/08/26 10:04:32;;;;;;;4.97;3.95;;;;;;;;;;5077331;28;20414;-80
2023/08/26 10:06:59;;;;;;;5.80;4.15;;;;;;;;;;5074911;28;20467;-78
2023/08/26 10:09:31;;;;;;;6.70;3.90;;;;;;;;;;5075570;28;20412;-79
2023/08/26 10:11:58;;;;;;;4.38;3.45;;;;;;;;;;5075065;28;20398;-79
2023/08/26 10:14:25;;;;;;;5.20;3.50;;;;;;;;;;5076069;28;20392;-79
2023/08/26 10:16:51;;;;;;;4.32;3.63;;;;;;;;;;5075617;28;20415;-79
2023/08/26 10:19:17;;;;;;;7.03;4.13;;;;;;;;;;5076425;28;20407;-79
2023/08/26 10:21:44;;;;;;;8.75;4.32;;;;;;;;;;5077065;28;20376;-79
2023/08/26 10:24:10;;;;;;;4.00;3.40;;;;;;;;;;5075629;28;20437;-79
2023/08/26 10:26:37;;;;;;;6.78;3.92;;;;;;;;;;5075844;28;20463;-79
2023/08/26 10:29:03;;;;;;;7.20;3.50;;;;;;;;;;5076608;28;20438;-79
2023/08/26 10:31:36;;;;;;;3.90;3.50;;;;;;;;;;5076519;28;20399;-78
2023/08/26 10:34:02;;;;;;;3.90;3.60;;;;;;;;;;5077242;28;20388;-79
2023/08/26 10:36:28;;;;;;;5.65;4.15;;;;;;;;;;5076385;28;20447;-79
2023/08/26 10:38:58;;;;;;;6.70;4.80;;;;;;;;;;5070837;28;20806;-78
2023/08/26 10:41:24;;;;;;;6.63;4.93;;;;;;;;;;5070621;28;20738;-78
2023/08/26 10:43:52;;;;;;;8.23;5.07;;;;;;;;;;5074130;28;20478;-78
2023/08/26 10:46:18;;;;;;;7.17;4.50;;;;;;;;;;5076305;28;20383;-78
2023/08/26 10:48:56;;;;;;;7.25;4.88;;;;;;;;;;5075800;28;20428;-77
2023/08/26 10:51:22;;;;;;;6.00;4.53;;;;;;;;;;5056631;28;20389;-78
2023/08/26 10:53:48;;;;;;;7.50;4.90;;;;;;;;;;5056562;28;20382;-78
2023/08/26 10:56:18;;;;;;;7.35;4.80;;;;;;;;;;5056325;28;20758;-77
2023/08/26 10:58:47;;;;;;;6.35;4.93;;;;;;;;;;5060776;28;20417;-78
2023/08/26 11:01:13;;;;;;;7.03;4.97;;;;;;;;;;5071559;28;20887;-78
2023/08/26 11:03:40;;;;;;;5.93;5.10;;;;;;;;;;5054127;28;20734;-77
2023/08/26 11:06:10;;;;;;;10.02;6.03;;;;;;;;;;5053666;28;20724;-78
2023/08/26 11:08:37;;;;;;;10.80;6.47;;;;;;;;;;5061957;28;20447;-77
2023/08/26 11:11:03;;;;;;;12.40;7.60;;;;;;;;;;5072649;28;20470;-77
2023/08/26 11:13:29;;;;;;;10.83;7.43;;;;;;;;;;5073357;28;20540;-77
2023/08/26 11:15:55;;;;;;;8.45;7.32;;;;;;;;;;5073151;28;20469;-80
2023/08/26 11:18:22;;;;;;;12.32;8.18;;;;;;;;;;5073647;28;20469;-81
2023/08/26 11:20:51;;;;;;;11.43;8.55;;;;;;;;;;5072991;28;20406;-80
2023/08/26 11:23:17;;;;;;;9.70;7.05;;;;;;;;;;5062231;28;20460;-80
2023/08/26 11:25:43;;;;;;;6.35;4.70;;;;;;;;;;5072259;28;20448;-79
2023/08/26 11:28:10;;;;;;;8.15;5.20;;;;;;;;;;5072936;28;20474;-80
2023/08/26 11:30:46;;;;;;;4.85;3.85;;;;;;;;;;5073026;28;20388;-79
2023/08/26 11:33:15;;;;;;;6.55;3.70;;;;;;;;;;5069815;28;20398;-79
2023/08/26 11:35:41;;;;;;;3.40;2.95;;;;;;;;;;5068290;28;20789;-79
2023/08/26 11:38:07;;;;;;;4.22;2.70;;;;;;;;;;5067565;28;20406;-80
2023/08/26 11:40:34;;;;;;;2.60;1.92;;;;;;;;;;5069963;28;20379;-78
2023/08/26 11:43:05;;;;;;;3.33;1.90;;;;;;;;;;5063762;28;20423;-78
2023/08/26 11:45:31;;;;;;;5.00;1.98;;;;;;;;;;5074053;28;20380;-78
2023/08/26 11:47:58;;;;;;;3.38;1.40;;;;;;;;;;5075621;28;20379;-79
2023/08/26 11:50:27;;;;;;;3.63;1.80;;;;;;;;;;5076855;28;20391;-78
2023/08/26 11:52:54;;;;;;;1.48;1.15;;;;;;;;;;5076261;28;20833;-78
2023/08/26 11:55:20;;;;;;;1.52;1.33;;;;;;;;;;5076561;28;20472;-78
2023/08/26 11:57:50;;;;;;;2.83;1.48;;;;;;;;;;5077542;28;20395;-78
2023/08/26 12:00:17;;;;;;;1.90;1.40;;;;;;;;;;5076035;28;20773;-77
2023/08/26 12:02:47;;;;;;;2.15;1.30;;;;;;;;;;5076370;28;20375;-78
2023/08/26 12:05:15;;;;;;;1.40;1.20;;;;;;;;;;5063903;28;20848;-78
2023/08/26 12:07:48;;;;;;;2.60;1.20;;;;;;;;;;5077238;28;20387;-77
2023/08/26 12:10:15;;;;;;;3.10;1.30;;;;;;;;;;5075494;28;20415;-79
2023/08/26 12:12:41;;;;;;;2.13;1.30;;;;;;;;;;5076978;28;20375;-80
2023/08/26 12:15:07;;;;;;;3.28;1.35;;;;;;;;;;5076198;28;20457;-77
2023/08/26 12:17:42;;;;;;;1.88;1.20;;;;;;;;;;5076742;28;20391;-80
2023/08/26 12:20:27;;;;;;;1.40;1.30;;;;;;;;;;5077542;28;20426;-80
2023/08/26 12:22:53;;;;;;;2.47;1.37;;;;;;;;;;5076718;28;20396;-78
2023/08/26 12:25:32;;;;;;;1.63;1.30;;;;;;;;;;5077271;28;20376;-80
2023/08/26 12:28:04;;;;;;;2.17;1.60;;;;;;;;;;5078268;28;20387;-80
2023/08/26 12:30:30;;;;;;;1.60;1.50;;;;;;;;;;5077427;28;20437;-80
2023/08/26 12:32:57;;;;;;;2.05;1.70;;;;;;;;;;5078683;28;20384;-79
2023/08/26 12:35:23;;;;;;;2.03;1.52;;;;;;;;;;5076796;28;20399;-80
2023/08/26 12:37:49;;;;;;;3.77;2.03;;;;;;;;;;5077066;28;20502;-79
2023/08/26 12:40:15;;;;;;;2.07;1.73;;;;;;;;;;5058814;28;20384;-79
2023/08/26 12:42:41;;;;;;;1.83;1.50;;;;;;;;;;5077520;28;20398;-80
2023/08/26 12:45:07;;;;;;;2.50;1.63;;;;;;;;;;5076595;28;20384;-80
2023/08/26 12:47:33;;;;;;;1.70;1.60;;;;;;;;;;5077053;28;20388;-79
2023/08/26 12:49:59;;;;;;;3.30;1.90;;;;;;;;;;5077232;28;20390;-80
2023/08/26 12:52:26;;;;;;;3.47;1.70;;;;;;;;;;5077453;28;20427;-80
2023/08/26 12:54:53;;;;;;;2.80;1.88;;;;;;;;;;5076633;28;20741;-80
2023/08/26 12:57:19;;;;;;;2.75;1.75;;;;;;;;;;5077420;28;20772;-79
2023/08/26 12:59:45;;;;;;;3.03;2.10;;;;;;;;;;5066287;28;20380;-81
2023/08/26 13:02:11;;;;;;;4.10;2.13;;;;;;;;;;5080190;28;20470;-80
2023/08/26 13:04:37;;;;;;;3.58;1.85;;;;;;;;;;5079873;28;20442;-80
2023/08/26 13:07:03;;;;;;;2.80;2.30;;;;;;;;;;5079802;28;20392;-81
2023/08/26 13:09:29;;;;;;;3.55;2.60;;;;;;;;;;5080552;28;20392;-81
2023/08/26 13:11:56;;;;;;;2.55;2.28;;;;;;;;;;5079664;28;20382;-81
2023/08/26 13:14:22;;;;;;;3.70;2.40;;;;;;;;;;5081681;28;20379;-81
2023/08/26 13:16:48;;;;;;;3.15;2.75;;;;;;;;;;5079337;28;20416;-81
2023/08/26 13:19:13;;;;;;;2.93;2.57;;;;;;;;;;5078951;28;20469;-82
2023/08/26 13:21:39;;;;;;;4.00;2.83;;;;;;;;;;5060134;28;20384;-81
2023/08/26 13:24:06;;;;;;;4.30;3.30;;;;;;;;;;5078385;28;20481;-81
2023/08/26 13:26:32;;;;;;;4.70;2.67;;;;;;;;;;5077961;28;20395;-80
2023/08/26 13:28:58;;;;;;;3.67;3.03;;;;;;;;;;5073753;28;20375;-81
2023/08/26 13:31:24;;;;;;;4.10;3.00;;;;;;;;;;5077612;28;20713;-83
2023/08/26 13:33:50;;;;;;;3.58;2.60;;;;;;;;;;5077904;28;20437;-80
2023/08/26 13:36:15;;;;;;;2.63;2.33;;;;;;;;;;5078206;28;20420;-81
2023/08/26 13:38:41;;;;;;;2.70;2.50;;;;;;;;;;5059317;28;20388;-81
2023/08/26 13:41:07;;;;;;;3.85;3.05;;;;;;;;;;5065884;28;20394;-80
2023/08/26 13:43:33;;;;;;;3.50;2.80;;;;;;;;;;5074781;28;20392;-81
2023/08/26 13:45:59;;;;;;;3.40;2.80;;;;;;;;;;5077433;28;20375;-81
2023/08/26 13:48:25;;;;;;;3.25;2.88;;;;;;;;;;5073451;28;20387;-81
2023/08/26 13:50:51;;;;;;;3.08;2.78;;;;;;;;;;5073582;28;20418;-80
2023/08/26 13:53:17;;;;;;;4.88;3.10;;;;;;;;;;5076447;28;20380;-80
2023/08/26 13:55:43;;;;;;;4.10;3.00;;;;;;;;;;5076498;28;20468;-81
2023/08/26 13:58:09;;;;;;;4.97;3.10;;;;;;;;;;5076434;28;20900;-81
2023/08/26 14:00:35;;;;;;;4.18;2.80;;;;;;;;;;5076894;28;20396;-81
2023/08/26 14:03:03;;;;;;;4.32;2.90;;;;;;;;;;5076834;28;20386;-81
2023/08/26 14:05:29;;;;;;;3.40;2.60;;;;;;;;;;5077073;28;20376;-81
2023/08/26 14:07:56;;;;;;;4.00;2.72;;;;;;;;;;5075862;28;20452;-81
2023/08/26 14:10:22;;;;;;;2.90;2.60;;;;;;;;;;5077104;28;20383;-81
2023/08/26 14:12:48;;;;;;;4.28;2.80;;;;;;;;;;5077780;28;20383;-81
2023/08/26 14:15:14;;;;;;;2.95;2.42;;;;;;;;;;5076744;28;20433;-81
2023/08/26 14:17:40;;;;;;;3.20;2.20;;;;;;;;;;5076990;28;20387;-81
2023/08/26 14:20:06;;;;;;;2.92;2.33;;;;;;;;;;5077266;28;20383;-80
2023/08/26 14:22:32;;;;;;;3.35;2.63;;;;;;;;;;5076970;28;20411;-80
2023/08/26 14:24:58;;;;;;;4.30;2.72;;;;;;;;;;5077570;28;20729;-81
2023/08/26 14:27:24;;;;;;;3.97;2.63;;;;;;;;;;5077365;28;20408;-80
2023/08/26 14:29:50;;;;;;;2.65;2.45;;;;;;;;;;5076919;28;20391;-81
2023/08/26 14:32:16;;;;;;;4.07;2.85;;;;;;;;;;5077092;28;20514;-81
2023/08/26 14:34:42;;;;;;;4.32;3.65;;;;;;;;;;5076998;28;20419;-81
2023/08/26 14:37:08;;;;;;;3.80;3.40;;;;;;;;;;5074843;28;20395;-80
2023/08/26 14:39:39;;;;;;;5.18;4.18;;;;;;;;;;5077700;28;20466;-80